createdAt,value
2022-07-25T00:02:01.983Z,17.67
2022-07-25T00:04:30.023Z,17.67
2022-07-25T00:06:58.099Z,17.66
2022-07-25T00:09:25.919Z,17.64
2022-07-25T00:11:53.667Z,17.64
2022-07-25T00:14:21.370Z,17.62
2022-07-25T00:16:49.107Z,17.63
2022-07-25T00:19:17.067Z,17.66
2022-07-25T00:21:45.278Z,17.65
2022-07-25T00:24:12.964Z,17.64
2022-07-25T00:26:40.816Z,17.64
2022-07-25T00:29:08.550Z,17.61
2022-07-25T00:31:36.509Z,17.58
2022-07-25T00:34:05.093Z,17.48
2022-07-25T00:36:33.170Z,17.39
2022-07-25T00:39:00.925Z,17.39
2022-07-25T00:41:28.696Z,17.39
2022-07-25T00:43:56.578Z,17.38
2022-07-25T00:46:24.471Z,17.25
2022-07-25T00:48:52.526Z,17.22
2022-07-25T00:51:20.622Z,17.25
2022-07-25T00:53:48.486Z,17.25
2022-07-25T00:56:17.270Z,17.25
2022-07-25T00:58:45.691Z,17.28
2022-07-25T01:01:13.726Z,17.26
2022-07-25T01:03:42.089Z,17.22
2022-07-25T01:06:09.876Z,17.20
2022-07-25T01:08:37.949Z,17.21
2022-07-25T01:11:06.348Z,17.22
2022-07-25T01:13:34.728Z,17.22
2022-07-25T01:16:02.611Z,17.21
2022-07-25T01:18:30.639Z,17.23
2022-07-25T01:20:58.344Z,17.22
2022-07-25T01:23:26.102Z,17.18
2022-07-25T01:25:53.812Z,17.18
2022-07-25T01:28:21.709Z,17.18
2022-07-25T01:30:49.912Z,17.15
2022-07-25T01:33:19.406Z,17.14
2022-07-25T01:35:48.205Z,17.08
2022-07-25T01:38:17.021Z,16.98
2022-07-25T01:40:45.118Z,16.88
2022-07-25T01:43:12.930Z,16.79
2022-07-25T01:45:40.944Z,16.71
2022-07-25T01:48:09.053Z,16.70
2022-07-25T01:50:37.021Z,16.73
2022-07-25T01:53:05.366Z,16.74
2022-07-25T01:55:33.127Z,16.76
2022-07-25T01:58:01.032Z,16.74
2022-07-25T02:00:29.084Z,16.69
2022-07-25T02:03:15.302Z,16.67
2022-07-25T02:05:42.965Z,16.63
2022-07-25T02:08:11.205Z,16.59
2022-07-25T02:10:39.551Z,16.59
2022-07-25T02:13:07.395Z,16.55
2022-07-25T02:15:35.999Z,16.55
2022-07-25T02:18:03.942Z,16.55
2022-07-25T02:20:32.042Z,16.49
2022-07-25T02:22:59.987Z,16.49
2022-07-25T02:25:27.960Z,16.49
2022-07-25T02:27:55.615Z,16.48
2022-07-25T02:30:23.939Z,16.40
2022-07-25T02:32:52.593Z,16.39
2022-07-25T02:35:20.939Z,16.45
2022-07-25T02:37:48.840Z,16.48
2022-07-25T02:40:16.551Z,16.50
2022-07-25T02:42:44.523Z,16.51
2022-07-25T02:45:12.344Z,16.48
2022-07-25T02:47:40.229Z,16.41
2022-07-25T02:50:09.232Z,16.37
2022-07-25T02:52:43.567Z,16.33
2022-07-25T02:55:12.130Z,16.34
2022-07-25T02:57:39.899Z,16.32
2022-07-25T03:00:09.090Z,16.34
2022-07-25T03:02:36.926Z,16.34
2022-07-25T03:05:12.862Z,16.33
2022-07-25T03:07:41.914Z,16.33
2022-07-25T03:10:12.167Z,16.32
2022-07-25T03:12:42.124Z,16.28
2022-07-25T03:15:11.340Z,16.27
2022-07-25T03:17:40.052Z,16.26
2022-07-25T03:20:09.702Z,16.26
2022-07-25T03:22:37.648Z,16.28
2022-07-25T03:25:06.059Z,16.30
2022-07-25T03:27:43.326Z,16.33
2022-07-25T03:30:12.357Z,16.34
2022-07-25T03:32:40.627Z,16.35
2022-07-25T03:35:09.185Z,16.38
2022-07-25T03:37:36.988Z,16.42
2022-07-25T03:40:05.900Z,16.45
2022-07-25T03:42:35.594Z,16.44
2022-07-25T03:45:04.951Z,16.43
2022-07-25T03:47:32.680Z,16.43
2022-07-25T03:50:00.489Z,16.57
2022-07-25T03:52:28.318Z,16.68
2022-07-25T03:54:56.033Z,16.69
2022-07-25T03:57:23.739Z,16.75
2022-07-25T03:59:51.900Z,16.83
2022-07-25T04:02:19.791Z,16.96
2022-07-25T04:04:47.660Z,17.09
2022-07-25T04:07:15.818Z,17.18
2022-07-25T04:09:43.482Z,17.22
2022-07-25T04:12:11.373Z,17.37
2022-07-25T04:14:39.154Z,17.48
2022-07-25T04:17:07.123Z,17.69
2022-07-25T04:19:35.604Z,17.78
2022-07-25T04:22:04.427Z,17.75
2022-07-25T04:24:32.149Z,17.83
2022-07-25T04:26:59.864Z,17.90
2022-07-25T04:29:27.766Z,18.04
2022-07-25T04:31:55.707Z,18.14
2022-07-25T04:34:23.995Z,18.24
2022-07-25T04:36:51.976Z,18.29
2022-07-25T04:39:19.844Z,18.35
2022-07-25T04:41:47.694Z,18.52
2022-07-25T04:44:15.547Z,18.63
2022-07-25T04:46:43.438Z,18.68
2022-07-25T04:49:11.314Z,18.73
2022-07-25T04:51:39.507Z,18.86
2022-07-25T04:54:07.466Z,18.90
2022-07-25T04:56:36.137Z,18.91
2022-07-25T04:59:06.839Z,18.91
2022-07-25T05:01:35.632Z,19.03
2022-07-25T05:04:04.287Z,19.17
2022-07-25T05:06:33.233Z,19.18
2022-07-25T05:09:01.040Z,19.32
2022-07-25T05:11:28.764Z,19.48
2022-07-25T05:13:56.667Z,19.63
2022-07-25T05:16:24.617Z,19.73
2022-07-25T05:18:52.504Z,19.86
2022-07-25T05:21:20.346Z,19.99
2022-07-25T05:23:48.164Z,20.04
2022-07-25T05:26:16.149Z,20.16
2022-07-25T05:28:43.881Z,20.22
2022-07-25T05:31:11.979Z,20.26
2022-07-25T05:33:39.980Z,20.41
2022-07-25T05:36:09.230Z,20.55
2022-07-25T05:38:37.274Z,20.65
2022-07-25T05:41:05.219Z,20.78
2022-07-25T05:43:33.073Z,20.90
2022-07-25T05:46:05.565Z,21.00
2022-07-25T05:48:33.330Z,21.19
2022-07-25T05:51:01.171Z,21.36
2022-07-25T05:53:29.069Z,21.57
2022-07-25T05:55:57.134Z,21.51
2022-07-25T05:58:29.382Z,21.51
2022-07-25T06:00:58.698Z,21.70
2022-07-25T06:03:26.682Z,21.81
2022-07-25T06:05:56.509Z,21.97
2022-07-25T06:08:24.150Z,22.13
2022-07-25T06:10:52.838Z,22.24
2022-07-25T06:13:21.006Z,22.32
2022-07-25T06:15:51.527Z,22.34
2022-07-25T06:18:19.523Z,22.42
2022-07-25T06:20:47.484Z,22.60
2022-07-25T06:23:15.854Z,22.74
2022-07-25T06:25:44.028Z,22.92
2022-07-25T06:28:19.099Z,23.03
2022-07-25T06:30:48.363Z,23.13
2022-07-25T06:33:16.351Z,23.18
2022-07-25T06:35:44.087Z,23.26
2022-07-25T06:38:12.166Z,23.46
2022-07-25T06:40:39.912Z,23.56
2022-07-25T06:43:07.930Z,23.58
2022-07-25T06:45:35.575Z,23.48
2022-07-25T06:48:03.451Z,23.55
2022-07-25T06:50:31.508Z,23.70
2022-07-25T06:52:59.276Z,23.85
2022-07-25T06:55:27.001Z,23.96
2022-07-25T06:57:54.751Z,24.04
2022-07-25T07:00:22.457Z,24.14
2022-07-25T07:02:52.117Z,24.32
2022-07-25T07:05:20.870Z,24.41
2022-07-25T07:07:48.656Z,24.34
2022-07-25T07:10:18.276Z,24.38
2022-07-25T07:12:46.181Z,24.54
2022-07-25T07:15:14.631Z,24.62
2022-07-25T07:17:42.526Z,24.72
2022-07-25T07:20:11.062Z,24.93
2022-07-25T07:22:49.315Z,25.16
2022-07-25T07:25:19.791Z,25.33
2022-07-25T07:27:48.088Z,25.48
2022-07-25T07:30:18.550Z,25.60
2022-07-25T07:32:50.302Z,25.83
2022-07-25T07:35:19.360Z,26.02
2022-07-25T07:37:47.192Z,25.99
2022-07-25T07:40:17.575Z,25.95
2022-07-25T07:42:47.910Z,26.04
2022-07-25T07:45:21.865Z,26.23
2022-07-25T07:47:51.904Z,26.23
2022-07-25T07:50:22.823Z,26.29
2022-07-25T07:52:52.245Z,26.44
2022-07-25T07:55:39.375Z,26.57
2022-07-25T07:58:07.383Z,26.67
2022-07-25T08:00:39.306Z,26.70
2022-07-25T08:03:08.927Z,26.88
2022-07-25T08:05:44.504Z,26.98
2022-07-25T08:08:14.479Z,27.07
2022-07-25T08:10:45.460Z,27.07
2022-07-25T08:13:16.609Z,27.07
2022-07-25T08:15:47.004Z,27.24
2022-07-25T08:18:16.927Z,27.25
2022-07-25T08:20:49.945Z,27.32
2022-07-25T08:23:18.199Z,27.44
2022-07-25T08:25:47.679Z,27.56
2022-07-25T08:28:15.641Z,27.57
2022-07-25T08:30:43.582Z,27.62
2022-07-25T08:33:13.753Z,27.72
2022-07-25T08:35:47.642Z,27.76
2022-07-25T08:38:15.717Z,27.82
2022-07-25T08:40:43.730Z,27.89
2022-07-25T08:43:16.585Z,27.91
2022-07-25T08:45:49.463Z,27.93
2022-07-25T08:48:20.186Z,27.98
2022-07-25T08:50:49.596Z,28.08
2022-07-25T08:53:35.691Z,28.16
2022-07-25T08:56:12.214Z,28.14
2022-07-25T08:58:43.911Z,28.27
2022-07-25T09:01:13.655Z,28.34
2022-07-25T09:03:44.723Z,28.30
2022-07-25T09:06:21.207Z,28.25
2022-07-25T09:08:58.212Z,28.34
2022-07-25T09:11:37.015Z,28.45
2022-07-25T09:14:11.015Z,28.51
2022-07-25T09:16:45.158Z,28.62
2022-07-25T09:19:16.972Z,28.44
2022-07-25T09:21:57.312Z,28.46
2022-07-25T09:24:26.090Z,28.51
2022-07-25T09:26:56.350Z,28.54
2022-07-25T09:29:26.217Z,28.51
2022-07-25T09:31:55.631Z,28.53
2022-07-25T09:34:34.741Z,28.66
2022-07-25T09:37:05.803Z,28.62
2022-07-25T09:39:48.708Z,28.71
2022-07-25T09:42:25.716Z,28.80
2022-07-25T09:45:13.633Z,28.79
2022-07-25T09:47:54.608Z,28.95
2022-07-25T09:50:24.489Z,29.04
2022-07-25T09:52:53.984Z,29.12
2022-07-25T09:55:22.914Z,29.06
2022-07-25T09:57:52.697Z,29.20
2022-07-25T10:00:24.774Z,29.24
2022-07-25T10:02:52.682Z,29.18
2022-07-25T10:05:45.657Z,29.22
2022-07-25T10:08:15.171Z,29.27
2022-07-25T10:10:43.527Z,29.40
2022-07-25T10:13:18.275Z,29.30
2022-07-25T10:15:52.159Z,29.03
2022-07-25T10:18:22.610Z,29.11
2022-07-25T10:20:52.942Z,29.25
2022-07-25T10:23:26.310Z,29.37
2022-07-25T10:26:13.958Z,29.50
2022-07-25T10:28:47.599Z,29.52
2022-07-25T10:31:31.591Z,29.51
2022-07-25T10:34:04.225Z,29.64
2022-07-25T10:36:43.349Z,29.64
2022-07-25T10:39:13.932Z,29.67
2022-07-25T10:41:44.543Z,29.70
2022-07-25T10:44:14.633Z,29.75
2022-07-25T10:46:45.082Z,29.86
2022-07-25T10:49:32.325Z,29.93
2022-07-25T10:52:03.368Z,29.96
2022-07-25T10:54:36.371Z,29.85
2022-07-25T10:57:07.109Z,29.80
2022-07-25T10:59:37.227Z,29.75
2022-07-25T11:02:09.593Z,29.89
2022-07-25T11:04:37.593Z,29.90
2022-07-25T11:07:14.002Z,30.00
2022-07-25T11:09:43.252Z,30.00
2022-07-25T11:12:15.375Z,30.05
2022-07-25T11:14:43.579Z,30.12
2022-07-25T11:17:20.343Z,30.05
2022-07-25T11:19:58.698Z,30.06
2022-07-25T11:22:28.668Z,30.12
2022-07-25T11:24:57.836Z,30.21
2022-07-25T11:27:34.208Z,30.24
2022-07-25T11:30:11.463Z,30.28
2022-07-25T11:32:42.210Z,30.29
2022-07-25T11:35:13.225Z,30.27
2022-07-25T11:37:43.450Z,30.29
2022-07-25T11:40:16.380Z,30.31
2022-07-25T11:42:49.772Z,30.27
2022-07-25T11:45:25.634Z,30.23
2022-07-25T11:48:09.012Z,30.34
2022-07-25T11:50:42.768Z,30.32
2022-07-25T11:53:14.653Z,30.35
2022-07-25T11:55:43.604Z,30.35
2022-07-25T11:58:13.784Z,30.37
2022-07-25T12:00:44.220Z,30.39
2022-07-25T12:03:20.425Z,30.43
2022-07-25T12:05:49.714Z,30.36
2022-07-25T12:08:20.744Z,30.28
2022-07-25T12:10:50.688Z,30.31
2022-07-25T12:13:26.764Z,30.36
2022-07-25T12:15:57.260Z,30.26
2022-07-25T12:18:25.204Z,30.29
2022-07-25T12:20:56.153Z,30.40
2022-07-25T12:23:24.001Z,30.49
2022-07-25T12:25:51.891Z,30.53
2022-07-25T12:28:19.675Z,30.66
2022-07-25T12:30:51.683Z,30.64
2022-07-25T12:33:24.679Z,30.65
2022-07-25T12:35:52.854Z,30.68
2022-07-25T12:38:20.637Z,30.66
2022-07-25T12:40:48.451Z,30.73
2022-07-25T12:43:16.355Z,30.69
2022-07-25T12:45:44.457Z,30.75
2022-07-25T12:48:14.813Z,30.73
2022-07-25T12:50:43.893Z,30.80
2022-07-25T12:53:13.699Z,30.80
2022-07-25T12:55:41.831Z,30.85
2022-07-25T12:58:09.722Z,30.77
2022-07-25T13:00:37.902Z,30.63
2022-07-25T13:03:05.789Z,30.68
2022-07-25T13:05:33.662Z,30.67
2022-07-25T13:08:04.752Z,30.80
2022-07-25T13:10:32.669Z,30.86
2022-07-25T13:13:00.369Z,30.88
2022-07-25T13:15:30.245Z,30.79
2022-07-25T13:17:58.262Z,30.80
2022-07-25T13:20:26.076Z,30.88
2022-07-25T13:22:53.828Z,31.01
2022-07-25T13:25:21.624Z,31.00
2022-07-25T13:27:49.719Z,31.02
2022-07-25T13:30:17.390Z,31.06
2022-07-25T13:32:45.184Z,31.04
2022-07-25T13:35:15.454Z,31.11
2022-07-25T13:37:47.294Z,31.07
2022-07-25T13:40:14.969Z,31.12
2022-07-25T13:42:42.716Z,31.19
2022-07-25T13:45:10.664Z,31.22
2022-07-25T13:47:38.594Z,31.17
2022-07-25T13:50:06.957Z,31.15
2022-07-25T13:52:34.821Z,31.19
2022-07-25T13:55:02.969Z,31.28
2022-07-25T13:57:32.808Z,31.28
2022-07-25T14:00:00.469Z,31.24
2022-07-25T14:02:28.231Z,31.24
2022-07-25T14:04:57.207Z,31.28
2022-07-25T14:07:27.483Z,31.24
2022-07-25T14:09:55.268Z,31.20
2022-07-25T14:12:23.049Z,31.26
2022-07-25T14:14:50.947Z,31.24
2022-07-25T14:17:18.992Z,31.25
2022-07-25T14:19:46.830Z,31.31
2022-07-25T14:22:14.496Z,31.32
2022-07-25T14:24:42.433Z,31.35
2022-07-25T14:27:10.710Z,31.34
2022-07-25T14:29:38.501Z,31.37
2022-07-25T14:32:07.974Z,31.49
2022-07-25T14:34:37.913Z,31.48
2022-07-25T14:37:06.963Z,31.45
2022-07-25T14:39:36.240Z,31.53
2022-07-25T14:42:04.647Z,31.61
2022-07-25T14:44:32.660Z,31.52
2022-07-25T14:47:00.855Z,31.50
2022-07-25T14:49:29.279Z,31.45
2022-07-25T14:51:57.265Z,31.54
2022-07-25T14:54:28.585Z,31.51
2022-07-25T14:56:56.272Z,31.50
2022-07-25T14:59:24.672Z,31.53
2022-07-25T15:01:52.443Z,31.51
2022-07-25T15:04:22.102Z,31.50
2022-07-25T15:06:49.870Z,31.51
2022-07-25T15:09:19.392Z,31.52
2022-07-25T15:11:48.200Z,31.49
2022-07-25T15:14:15.895Z,31.47
2022-07-25T15:16:43.795Z,31.50
2022-07-25T15:19:25.867Z,31.53
2022-07-25T15:21:54.417Z,31.54
2022-07-25T15:24:27.181Z,31.50
2022-07-25T15:26:58.105Z,31.46
2022-07-25T15:29:27.840Z,31.47
2022-07-25T15:31:55.657Z,31.53
2022-07-25T15:34:23.560Z,31.57
2022-07-25T15:36:52.241Z,31.58
2022-07-25T15:39:19.958Z,31.61
2022-07-25T15:41:47.683Z,31.62
2022-07-25T15:44:15.330Z,31.61
2022-07-25T15:46:45.072Z,31.57
2022-07-25T15:49:15.279Z,31.50
2022-07-25T15:51:43.101Z,31.58
2022-07-25T15:54:10.754Z,31.58
2022-07-25T15:56:38.875Z,31.58
2022-07-25T15:59:07.664Z,31.56
2022-07-25T16:01:36.045Z,31.51
2022-07-25T16:04:04.059Z,31.40
2022-07-25T16:06:31.841Z,31.46
2022-07-25T16:08:59.518Z,31.48
2022-07-25T16:11:27.278Z,31.47
2022-07-25T16:13:54.946Z,31.45
2022-07-25T16:16:22.994Z,31.40
2022-07-25T16:18:51.196Z,31.40
2022-07-25T16:21:18.924Z,31.43
2022-07-25T16:23:46.853Z,31.44
2022-07-25T16:26:14.615Z,31.40
2022-07-25T16:28:42.508Z,31.40
2022-07-25T16:31:10.287Z,31.38
2022-07-25T16:33:38.608Z,31.33
2022-07-25T16:36:06.808Z,31.33
2022-07-25T16:38:34.908Z,31.34
2022-07-25T16:41:02.689Z,31.34
2022-07-25T16:43:30.659Z,31.32
2022-07-25T16:45:58.457Z,31.30
2022-07-25T16:48:26.314Z,31.23
2022-07-25T16:50:54.328Z,31.19
2022-07-25T16:53:22.229Z,31.12
2022-07-25T16:55:50.188Z,31.03
2022-07-25T16:58:18.218Z,30.91
2022-07-25T17:00:45.959Z,30.86
2022-07-25T17:03:13.750Z,30.82
2022-07-25T17:05:41.438Z,30.81
2022-07-25T17:08:09.153Z,30.83
2022-07-25T17:10:36.920Z,30.86
2022-07-25T17:13:04.938Z,30.80
2022-07-25T17:15:32.944Z,30.75
2022-07-25T17:18:00.768Z,30.69
2022-07-25T17:20:28.460Z,30.66
2022-07-25T17:22:56.245Z,30.64
2022-07-25T17:25:24.127Z,30.66
2022-07-25T17:27:51.927Z,30.68
2022-07-25T17:30:19.788Z,30.67
2022-07-25T17:32:47.887Z,30.68
2022-07-25T17:35:15.738Z,30.66
2022-07-25T17:37:43.650Z,30.64
2022-07-25T17:40:11.919Z,30.62
2022-07-25T17:42:44.934Z,30.59
2022-07-25T17:45:15.133Z,30.57
2022-07-25T17:47:43.589Z,30.56
2022-07-25T17:50:11.796Z,30.55
2022-07-25T17:52:39.777Z,30.53
2022-07-25T17:55:07.933Z,30.50
2022-07-25T17:57:36.002Z,30.43
2022-07-25T18:00:04.693Z,30.41
2022-07-25T18:02:32.505Z,30.37
2022-07-25T18:05:00.301Z,30.31
2022-07-25T18:07:27.966Z,30.23
2022-07-25T18:09:55.795Z,30.15
2022-07-25T18:12:27.506Z,30.09
2022-07-25T18:14:57.441Z,30.01
2022-07-25T18:17:25.878Z,29.95
2022-07-25T18:19:53.585Z,29.88
2022-07-25T18:22:21.305Z,29.84
2022-07-25T18:24:49.111Z,29.76
2022-07-25T18:27:16.946Z,29.70
2022-07-25T18:29:44.623Z,29.63
2022-07-25T18:32:12.378Z,29.57
2022-07-25T18:34:40.220Z,29.54
2022-07-25T18:37:07.965Z,29.50
2022-07-25T18:39:35.688Z,29.44
2022-07-25T18:42:03.617Z,29.40
2022-07-25T18:44:32.524Z,29.33
2022-07-25T18:47:00.734Z,29.28
2022-07-25T18:49:29.512Z,29.23
2022-07-25T18:51:57.217Z,29.17
2022-07-25T18:54:24.854Z,29.11
2022-07-25T18:56:52.851Z,29.04
2022-07-25T18:59:21.044Z,29.00
2022-07-25T19:01:50.491Z,28.93
2022-07-25T19:04:19.547Z,28.88
2022-07-25T19:06:47.548Z,28.83
2022-07-25T19:09:15.312Z,28.79
2022-07-25T19:11:42.939Z,28.72
2022-07-25T19:14:10.852Z,28.65
2022-07-25T19:16:39.000Z,28.58
2022-07-25T19:19:07.285Z,28.51
2022-07-25T19:21:36.287Z,28.44
2022-07-25T19:24:04.722Z,28.37
2022-07-25T19:26:32.927Z,28.31
2022-07-25T19:29:00.905Z,28.25
2022-07-25T19:31:28.627Z,28.17
2022-07-25T19:33:56.480Z,28.11
2022-07-25T19:36:24.281Z,28.05
2022-07-25T19:38:52.419Z,27.99
2022-07-25T19:41:20.219Z,27.92
2022-07-25T19:43:48.123Z,27.87
2022-07-25T19:46:15.858Z,27.81
2022-07-25T19:48:43.706Z,27.75
2022-07-25T19:51:12.101Z,27.70
2022-07-25T19:53:40.135Z,27.64
2022-07-25T19:56:09.221Z,27.60
2022-07-25T19:58:39.122Z,27.54
2022-07-25T20:01:09.055Z,27.49
2022-07-25T20:03:36.911Z,27.42
2022-07-25T20:06:08.267Z,27.38
2022-07-25T20:08:39.604Z,27.32
2022-07-25T20:11:08.052Z,27.28
2022-07-25T20:13:36.155Z,27.21
2022-07-25T20:16:04.897Z,27.16
2022-07-25T20:18:32.574Z,27.09
2022-07-25T20:21:00.961Z,27.01
2022-07-25T20:23:28.707Z,26.95
2022-07-25T20:25:56.729Z,26.89
2022-07-25T20:28:24.473Z,26.82
2022-07-25T20:30:52.331Z,26.77
2022-07-25T20:33:20.203Z,26.70
2022-07-25T20:35:48.366Z,26.64
2022-07-25T20:38:16.308Z,26.58
2022-07-25T20:40:49.705Z,26.56
2022-07-25T20:43:18.576Z,26.49
2022-07-25T20:45:47.554Z,26.46
2022-07-25T20:48:15.934Z,26.43
2022-07-25T20:50:45.068Z,26.39
2022-07-25T20:53:12.845Z,26.35
2022-07-25T20:55:40.610Z,26.33
2022-07-25T20:58:08.389Z,26.31
2022-07-25T21:00:36.423Z,26.28
2022-07-25T21:03:04.595Z,26.27
2022-07-25T21:05:40.565Z,26.24
2022-07-25T21:08:08.341Z,26.24
2022-07-25T21:10:36.097Z,26.24
2022-07-25T21:13:04.144Z,26.26
2022-07-25T21:15:32.046Z,26.24
2022-07-25T21:18:00.034Z,26.23
2022-07-25T21:20:28.344Z,26.24
2022-07-25T21:22:56.210Z,26.24
2022-07-25T21:25:23.987Z,26.26
2022-07-25T21:27:51.654Z,26.23
2022-07-25T21:30:19.726Z,26.20
2022-07-25T21:32:47.634Z,26.16
2022-07-25T21:35:15.289Z,26.12
2022-07-25T21:37:43.079Z,26.08
2022-07-25T21:40:11.129Z,26.02
2022-07-25T21:42:38.871Z,25.97
2022-07-25T21:45:07.302Z,25.94
2022-07-25T21:47:34.964Z,25.88
2022-07-25T21:50:24.507Z,25.69
2022-07-25T21:52:53.946Z,25.49
2022-07-25T21:55:22.500Z,25.35
2022-07-25T21:57:54.131Z,25.21
2022-07-25T22:00:22.498Z,25.09
2022-07-25T22:02:50.507Z,25.02
2022-07-25T22:05:19.298Z,24.89
2022-07-25T22:07:48.254Z,24.75
2022-07-25T22:10:17.583Z,24.64
2022-07-25T22:12:45.685Z,24.47
2022-07-25T22:15:14.389Z,24.33
2022-07-25T22:17:48.753Z,24.28
2022-07-25T22:20:19.741Z,24.37
2022-07-25T22:22:48.471Z,24.41
2022-07-25T22:25:17.798Z,24.35
2022-07-25T22:27:45.657Z,24.46
2022-07-25T22:30:19.116Z,24.56
2022-07-25T22:32:49.232Z,24.74
2022-07-25T22:35:17.923Z,24.93
2022-07-25T22:37:46.103Z,25.07
2022-07-25T22:40:14.723Z,25.14
2022-07-25T22:42:42.852Z,25.18
2022-07-25T22:45:11.306Z,25.19
2022-07-25T22:47:38.978Z,25.21
2022-07-25T22:50:08.045Z,25.23
2022-07-25T22:52:35.866Z,25.23
2022-07-25T22:55:04.135Z,25.17
2022-07-25T22:57:37.344Z,25.12
2022-07-25T23:00:09.038Z,25.03
2022-07-25T23:02:37.954Z,25.04
2022-07-25T23:05:07.639Z,25.06
2022-07-25T23:07:35.503Z,25.07
2022-07-25T23:10:04.690Z,25.06
2022-07-25T23:12:32.540Z,25.07
2022-07-25T23:15:00.413Z,25.09
2022-07-25T23:17:28.458Z,25.11
2022-07-25T23:19:56.840Z,25.10
2022-07-25T23:22:27.882Z,25.05
2022-07-25T23:24:56.446Z,25.03
2022-07-25T23:27:25.302Z,25.05
2022-07-25T23:29:53.694Z,24.98
2022-07-25T23:32:21.666Z,24.96
2022-07-25T23:34:49.345Z,24.96
2022-07-25T23:37:17.104Z,24.95
2022-07-25T23:39:44.782Z,24.94
2022-07-25T23:42:12.522Z,24.93
2022-07-25T23:44:42.321Z,24.91
2022-07-25T23:47:12.500Z,24.92
2022-07-25T23:49:41.095Z,24.89
2022-07-25T23:52:09.155Z,24.82
2022-07-25T23:54:38.382Z,24.79
2022-07-25T23:57:07.255Z,24.65
2022-07-25T23:59:35.984Z,24.57
